createdAt,value
2018-06-22T00:00:41.607Z,61.17
2018-06-22T00:03:10.091Z,61.33
2018-06-22T00:05:38.502Z,61.86
2018-06-22T00:08:06.885Z,62.45
2018-06-22T00:10:35.223Z,62.72
2018-06-22T00:13:03.650Z,61.76
2018-06-22T00:15:32.045Z,62.35
2018-06-22T00:18:00.333Z,63.20
2018-06-22T00:20:28.790Z,63.03
2018-06-22T00:22:57.168Z,62.73
2018-06-22T00:25:25.687Z,62.58
2018-06-22T00:27:54.035Z,62.28
2018-06-22T00:30:22.518Z,62.12
2018-06-22T00:32:50.817Z,63.41
2018-06-22T00:35:19.274Z,62.37
2018-06-22T00:37:47.755Z,63.33
2018-06-22T00:40:16.207Z,63.06
2018-06-22T00:42:44.508Z,62.93
2018-06-22T00:45:12.773Z,63.68
2018-06-22T00:47:41.501Z,63.74
2018-06-22T00:50:09.840Z,63.17
2018-06-22T00:52:38.120Z,63.53
2018-06-22T00:55:06.441Z,64.47
2018-06-22T00:57:34.884Z,63.13
2018-06-22T01:00:03.075Z,62.91
2018-06-22T01:02:31.576Z,64.33
2018-06-22T01:04:59.886Z,64.28
2018-06-22T01:07:28.101Z,64.42
2018-06-22T01:09:56.518Z,64.32
2018-06-22T01:12:24.962Z,64.56
2018-06-22T01:14:53.133Z,65.73
2018-06-22T01:17:21.445Z,64.94
2018-06-22T01:19:49.664Z,64.66
2018-06-22T01:22:18.703Z,63.90
2018-06-22T01:24:47.328Z,63.06
2018-06-22T01:27:15.737Z,62.59
2018-06-22T01:29:44.187Z,63.57
2018-06-22T01:32:12.766Z,63.91
2018-06-22T01:34:41.277Z,64.98
2018-06-22T01:37:09.766Z,65.66
2018-06-22T01:39:38.318Z,66.23
2018-06-22T01:42:06.626Z,64.94
2018-06-22T01:44:35.041Z,64.67
2018-06-22T01:47:03.540Z,65.50
2018-06-22T01:49:31.856Z,65.85
2018-06-22T01:52:00.137Z,66.09
2018-06-22T01:54:28.570Z,66.24
2018-06-22T01:56:56.906Z,67.23
2018-06-22T01:59:25.287Z,67.35
2018-06-22T02:01:53.816Z,66.95
2018-06-22T02:04:22.242Z,67.06
2018-06-22T02:06:50.518Z,67.72
2018-06-22T02:09:18.934Z,66.91
2018-06-22T02:11:47.401Z,67.03
2018-06-22T02:14:15.876Z,67.24
2018-06-22T02:16:44.307Z,67.11
2018-06-22T02:19:12.698Z,67.14
2018-06-22T02:21:41.077Z,66.58
2018-06-22T02:24:09.454Z,66.69
2018-06-22T02:26:38.393Z,66.52
2018-06-22T02:29:06.775Z,65.66
2018-06-22T02:31:35.270Z,65.20
2018-06-22T02:34:03.733Z,65.10
2018-06-22T02:36:32.405Z,64.92
2018-06-22T02:39:01.069Z,64.71
2018-06-22T02:41:29.477Z,64.30
2018-06-22T02:43:57.959Z,64.08
2018-06-22T02:46:26.386Z,64.99
2018-06-22T02:48:54.925Z,64.62
2018-06-22T02:51:24.409Z,64.76
2018-06-22T02:53:52.880Z,65.44
2018-06-22T02:56:20.879Z,65.82
2018-06-22T02:58:49.388Z,65.39
2018-06-22T03:01:17.726Z,64.91
2018-06-22T03:03:46.330Z,65.65
2018-06-22T03:06:14.790Z,66.18
2018-06-22T03:08:43.330Z,64.86
2018-06-22T03:11:11.859Z,64.91
2018-06-22T03:13:40.152Z,64.52
2018-06-22T03:16:11.497Z,65.00
2018-06-22T03:18:39.965Z,64.98
2018-06-22T03:21:08.601Z,65.60
2018-06-22T03:23:37.042Z,66.05
2018-06-22T03:26:05.922Z,66.31
2018-06-22T03:28:34.458Z,66.01
2018-06-22T03:31:02.682Z,64.98
2018-06-22T03:33:31.305Z,64.75
2018-06-22T03:35:59.902Z,64.70
2018-06-22T03:38:28.654Z,65.26
2018-06-22T03:40:57.043Z,66.15
2018-06-22T03:43:25.522Z,66.80
2018-06-22T03:45:54.017Z,66.47
2018-06-22T03:48:22.414Z,66.88
2018-06-22T03:50:51.110Z,66.20
2018-06-22T03:53:19.541Z,65.99
2018-06-22T03:55:48.020Z,66.75
2018-06-22T03:58:16.602Z,66.79
2018-06-22T04:00:45.573Z,66.65
2018-06-22T04:03:14.073Z,67.03
2018-06-22T04:05:42.652Z,66.65
2018-06-22T04:08:11.364Z,66.55
2018-06-22T04:10:39.741Z,65.81
2018-06-22T04:13:08.106Z,65.30
2018-06-22T04:15:36.489Z,64.96
2018-06-22T04:18:04.966Z,64.52
2018-06-22T04:20:33.450Z,64.50
2018-06-22T04:23:01.425Z,63.78
2018-06-22T04:25:32.678Z,63.48
2018-06-22T04:28:00.837Z,63.23
2018-06-22T04:30:29.226Z,62.68
2018-06-22T04:32:57.657Z,62.82
2018-06-22T04:35:26.184Z,62.12
2018-06-22T04:37:57.433Z,62.19
2018-06-22T04:40:26.014Z,61.49
2018-06-22T04:42:54.496Z,61.54
2018-06-22T04:45:23.081Z,60.06
2018-06-22T04:47:51.554Z,59.19
2018-06-22T04:50:20.041Z,57.10
2018-06-22T04:52:48.507Z,57.18
2018-06-22T04:55:17.048Z,56.19
2018-06-22T04:57:45.332Z,55.43
2018-06-22T05:00:13.878Z,54.99
2018-06-22T05:02:42.540Z,54.70
2018-06-22T05:05:10.728Z,54.09
2018-06-22T05:07:39.396Z,54.38
2018-06-22T05:10:08.304Z,54.74
2018-06-22T05:12:37.071Z,55.60
2018-06-22T05:15:05.506Z,55.64
2018-06-22T05:17:34.112Z,54.74
2018-06-22T05:20:02.332Z,55.00
2018-06-22T05:22:31.025Z,54.88
2018-06-22T05:24:59.729Z,54.49
2018-06-22T05:27:28.110Z,54.24
2018-06-22T05:29:57.373Z,54.49
2018-06-22T05:32:25.966Z,54.33
2018-06-22T05:34:54.536Z,54.05
2018-06-22T05:37:23.180Z,53.85
2018-06-22T05:39:51.709Z,53.86
2018-06-22T05:42:20.167Z,54.17
2018-06-22T05:44:48.682Z,54.22
2018-06-22T05:47:17.192Z,53.59
2018-06-22T05:49:45.429Z,53.19
2018-06-22T05:52:14.040Z,53.34
2018-06-22T05:54:42.665Z,53.43
2018-06-22T05:57:11.130Z,54.33
2018-06-22T05:59:40.290Z,53.84
2018-06-22T06:02:08.875Z,53.21
2018-06-22T06:04:37.357Z,53.44
2018-06-22T06:07:05.840Z,54.04
2018-06-22T06:09:35.440Z,53.69
2018-06-22T06:12:04.017Z,53.63
2018-06-22T06:14:32.618Z,53.54
2018-06-22T06:17:01.226Z,53.16
2018-06-22T06:19:29.781Z,53.55
2018-06-22T06:21:58.411Z,53.15
2018-06-22T06:24:26.968Z,53.39
2018-06-22T06:26:55.180Z,53.28
2018-06-22T06:29:24.413Z,52.87
2018-06-22T06:31:53.704Z,53.65
2018-06-22T06:34:21.813Z,53.13
2018-06-22T06:36:49.958Z,53.51
2018-06-22T06:39:18.178Z,53.48
2018-06-22T06:41:46.339Z,52.89
2018-06-22T06:44:14.424Z,51.42
2018-06-22T06:46:42.523Z,53.33
2018-06-22T06:49:10.804Z,52.76
2018-06-22T06:51:38.965Z,53.62
2018-06-22T06:54:07.085Z,54.43
2018-06-22T06:56:35.162Z,53.44
2018-06-22T06:59:03.234Z,53.52
2018-06-22T07:01:31.421Z,52.89
2018-06-22T07:04:00.116Z,53.69
2018-06-22T07:06:28.140Z,52.94
2018-06-22T07:08:57.157Z,51.13
2018-06-22T07:11:25.174Z,51.21
2018-06-22T07:13:53.580Z,52.06
2018-06-22T07:16:22.054Z,51.90
2018-06-22T07:18:50.496Z,50.97
2018-06-22T07:21:18.954Z,51.41
2018-06-22T07:23:47.597Z,51.26
2018-06-22T07:26:16.249Z,51.81
2018-06-22T07:28:44.979Z,51.62
2018-06-22T07:31:13.652Z,50.62
2018-06-22T07:33:42.435Z,49.84
2018-06-22T07:36:13.986Z,49.44
2018-06-22T07:38:42.730Z,50.11
2018-06-22T07:41:11.115Z,49.42
2018-06-22T07:43:39.591Z,49.82
2018-06-22T07:46:08.178Z,50.81
2018-06-22T07:48:36.834Z,49.80
2018-06-22T07:51:05.476Z,49.96
2018-06-22T07:53:36.694Z,50.28
2018-06-22T07:56:05.169Z,49.98
2018-06-22T07:58:34.481Z,49.69
2018-06-22T08:01:03.334Z,50.24
2018-06-22T08:03:32.074Z,49.68
2018-06-22T08:06:00.633Z,48.49
2018-06-22T08:08:29.225Z,49.60
2018-06-22T08:11:07.665Z,49.43
2018-06-22T08:13:36.433Z,49.40
2018-06-22T08:16:05.102Z,49.36
2018-06-22T08:18:33.644Z,49.20
2018-06-22T08:21:02.396Z,48.77
2018-06-22T08:23:31.067Z,48.92
2018-06-22T08:25:59.544Z,49.06
2018-06-22T08:28:28.366Z,48.12
2018-06-22T08:30:57.647Z,48.05
2018-06-22T08:33:26.573Z,48.82
2018-06-22T08:35:55.007Z,47.31
2018-06-22T08:38:24.111Z,47.31
2018-06-22T08:40:53.327Z,47.94
2018-06-22T08:43:21.772Z,48.46
2018-06-22T08:45:50.034Z,47.57
2018-06-22T08:48:18.850Z,46.05
2018-06-22T08:50:47.269Z,46.77
2018-06-22T08:53:15.947Z,46.62
2018-06-22T08:55:44.444Z,46.50
2018-06-22T08:58:12.822Z,46.25
2018-06-22T09:00:41.550Z,45.03
2018-06-22T09:03:09.841Z,45.02
2018-06-22T09:05:38.467Z,44.04
2018-06-22T09:08:07.112Z,44.23
2018-06-22T09:10:35.391Z,46.59
2018-06-22T09:13:03.823Z,46.63
2018-06-22T09:15:32.245Z,44.63
2018-06-22T09:18:01.795Z,44.34
2018-06-22T09:20:30.021Z,43.71
2018-06-22T09:22:58.062Z,46.25
2018-06-22T09:25:26.138Z,43.10
2018-06-22T09:27:55.098Z,43.68
2018-06-22T09:30:23.447Z,43.19
2018-06-22T09:32:52.030Z,42.17
2018-06-22T09:35:20.106Z,42.57
2018-06-22T09:37:48.185Z,41.82
2018-06-22T09:40:16.711Z,41.51
2018-06-22T09:42:45.396Z,42.16
2018-06-22T09:45:13.814Z,40.92
2018-06-22T09:47:42.406Z,41.30
2018-06-22T09:50:10.967Z,44.26
2018-06-22T09:52:39.410Z,40.71
2018-06-22T09:55:11.315Z,44.08
2018-06-22T09:57:39.959Z,38.17
2018-06-22T10:00:08.529Z,38.18
2018-06-22T10:02:37.122Z,39.08
2018-06-22T10:05:05.634Z,39.74
2018-06-22T10:07:34.150Z,39.19
2018-06-22T10:10:02.675Z,39.06
2018-06-22T10:12:31.035Z,38.78
2018-06-22T10:14:59.503Z,38.65
2018-06-22T10:17:28.030Z,38.47
2018-06-22T10:19:56.566Z,38.01
2018-06-22T10:22:25.253Z,37.96
2018-06-22T10:24:53.629Z,39.93
2018-06-22T10:27:22.151Z,42.75
2018-06-22T10:29:50.689Z,42.81
2018-06-22T10:32:19.905Z,39.54
2018-06-22T10:34:48.429Z,39.46
2018-06-22T10:37:16.844Z,38.74
2018-06-22T10:39:45.870Z,39.79
2018-06-22T10:42:14.431Z,35.79
2018-06-22T10:44:43.127Z,36.45
2018-06-22T10:47:11.244Z,35.62
2018-06-22T10:49:40.389Z,35.79
2018-06-22T10:52:08.642Z,36.20
2018-06-22T10:54:36.740Z,36.15
2018-06-22T10:57:05.289Z,36.57
2018-06-22T10:59:34.198Z,36.75
2018-06-22T11:02:02.802Z,42.26
2018-06-22T11:04:31.422Z,42.47
2018-06-22T11:06:59.745Z,41.44
2018-06-22T11:09:28.278Z,35.66
2018-06-22T11:11:57.436Z,36.81
2018-06-22T11:14:26.235Z,38.53
2018-06-22T11:16:54.619Z,34.96
2018-06-22T11:19:23.372Z,34.50
2018-06-22T11:21:51.774Z,35.59
2018-06-22T11:24:20.302Z,33.50
2018-06-22T11:26:48.734Z,35.35
2018-06-22T11:29:16.728Z,35.39
2018-06-22T11:31:44.732Z,32.39
2018-06-22T11:34:12.779Z,36.97
2018-06-22T11:36:40.894Z,35.60
2018-06-22T11:39:10.272Z,42.64
2018-06-22T11:41:39.396Z,42.55
2018-06-22T11:44:08.249Z,42.81
2018-06-22T11:46:37.001Z,42.33
2018-06-22T11:49:06.362Z,33.64
2018-06-22T11:51:34.987Z,42.54
2018-06-22T11:54:03.416Z,32.69
2018-06-22T11:56:32.053Z,31.07
2018-06-22T11:59:00.740Z,29.84
2018-06-22T12:01:29.363Z,28.99
2018-06-22T12:03:57.809Z,29.60
2018-06-22T12:06:26.383Z,41.89
2018-06-22T12:08:54.974Z,28.46
2018-06-22T12:11:23.355Z,38.68
2018-06-22T12:13:51.942Z,36.40
2018-06-22T12:16:20.701Z,27.54
2018-06-22T12:18:49.227Z,27.47
2018-06-22T12:21:18.836Z,28.45
2018-06-22T12:23:47.322Z,27.85
2018-06-22T12:26:15.875Z,37.15
2018-06-22T12:28:45.189Z,40.37
2018-06-22T12:31:13.659Z,32.41
2018-06-22T12:33:42.038Z,30.67
2018-06-22T12:36:10.413Z,37.61
2018-06-22T12:38:38.900Z,29.39
2018-06-22T12:41:07.374Z,28.83
2018-06-22T12:43:35.977Z,28.97
2018-06-22T12:46:05.161Z,29.41
2018-06-22T12:48:33.829Z,29.14
2018-06-22T12:51:02.338Z,29.34
2018-06-22T12:53:30.914Z,29.54
2018-06-22T12:55:59.598Z,28.63
2018-06-22T12:58:28.133Z,29.64
2018-06-22T13:00:56.770Z,29.86
2018-06-22T13:03:25.143Z,29.58
2018-06-22T13:05:53.631Z,29.83
2018-06-22T13:08:21.995Z,30.04
2018-06-22T13:10:50.602Z,31.16
2018-06-22T13:13:19.083Z,31.68
2018-06-22T13:15:47.560Z,30.45
2018-06-22T13:18:16.114Z,31.04
2018-06-22T13:20:44.641Z,31.22
2018-06-22T13:23:12.998Z,31.34
2018-06-22T13:25:41.477Z,31.96
2018-06-22T13:28:09.862Z,33.25
2018-06-22T13:30:38.243Z,33.48
2018-06-22T13:33:06.657Z,34.63
2018-06-22T13:35:35.005Z,35.00
2018-06-22T13:38:03.557Z,35.02
2018-06-22T13:40:32.092Z,36.45
2018-06-22T13:43:00.463Z,33.19
2018-06-22T13:45:29.008Z,34.29
2018-06-22T13:47:57.597Z,34.01
2018-06-22T13:50:26.305Z,39.62
2018-06-22T13:52:54.881Z,32.83
2018-06-22T13:55:23.492Z,33.27
2018-06-22T13:57:51.859Z,31.25
2018-06-22T14:00:20.586Z,34.35
2018-06-22T14:02:50.261Z,34.22
2018-06-22T14:05:38.697Z,32.01
2018-06-22T14:08:07.378Z,32.39
2018-06-22T14:10:35.802Z,32.91
2018-06-22T14:13:04.335Z,31.65
2018-06-22T14:15:33.049Z,37.41
2018-06-22T14:18:01.703Z,31.39
2018-06-22T14:20:30.302Z,31.13
2018-06-22T14:22:58.877Z,32.89
2018-06-22T14:25:27.629Z,32.69
2018-06-22T14:27:56.168Z,40.83
2018-06-22T14:30:24.733Z,35.56
2018-06-22T14:32:53.340Z,32.34
2018-06-22T14:35:22.120Z,33.91
2018-06-22T14:37:50.719Z,33.68
2018-06-22T14:40:19.164Z,33.01
2018-06-22T14:42:47.556Z,32.65
2018-06-22T14:45:16.451Z,33.22
2018-06-22T14:47:45.454Z,34.22
2018-06-22T14:50:17.192Z,35.86
2018-06-22T14:52:45.981Z,35.24
2018-06-22T14:55:19.997Z,35.88
2018-06-22T14:57:53.903Z,35.42
2018-06-22T15:00:27.709Z,36.83
2018-06-22T15:03:02.703Z,37.77
2018-06-22T15:05:36.663Z,40.65
2018-06-22T15:08:06.917Z,38.94
2018-06-22T15:10:35.494Z,38.56
2018-06-22T15:13:03.597Z,39.26
2018-06-22T15:15:31.656Z,38.79
2018-06-22T15:17:59.670Z,39.97
2018-06-22T15:20:28.094Z,38.41
2018-06-22T15:22:56.182Z,39.19
2018-06-22T15:25:24.206Z,38.58
2018-06-22T15:27:52.912Z,41.48
2018-06-22T15:30:20.933Z,40.27
2018-06-22T15:32:49.277Z,41.79
2018-06-22T15:35:23.698Z,42.40
2018-06-22T15:37:57.638Z,43.13
2018-06-22T15:40:31.650Z,41.75
2018-06-22T15:43:05.501Z,42.85
2018-06-22T15:45:39.477Z,42.94
2018-06-22T15:48:13.435Z,42.83
2018-06-22T15:50:47.255Z,41.49
2018-06-22T15:53:20.981Z,42.53
2018-06-22T15:55:50.151Z,42.09
2018-06-22T15:58:18.639Z,41.91
2018-06-22T16:00:47.094Z,41.88
2018-06-22T16:03:20.999Z,42.24
2018-06-22T16:05:49.486Z,41.54
2018-06-22T16:08:18.098Z,42.97
2018-06-22T16:10:46.679Z,45.81
2018-06-22T16:13:19.916Z,43.68
2018-06-22T16:16:53.771Z,43.90
2018-06-22T16:20:31.929Z,44.89
2018-06-22T16:23:05.520Z,45.49
2018-06-22T16:25:39.389Z,47.05
2018-06-22T16:28:07.819Z,46.97
2018-06-22T16:30:37.399Z,45.76
2018-06-22T16:33:06.272Z,44.64
2018-06-22T16:35:35.174Z,44.61
2018-06-22T16:38:04.734Z,45.69
2018-06-22T16:40:33.151Z,45.56
2018-06-22T16:43:02.205Z,45.65
2018-06-22T16:45:31.407Z,44.70
2018-06-22T16:48:01.800Z,44.67
2018-06-22T16:50:30.302Z,45.40
2018-06-22T16:52:58.723Z,46.07
2018-06-22T16:55:28.051Z,46.69
2018-06-22T16:57:56.859Z,45.41
2018-06-22T17:00:25.750Z,46.16
2018-06-22T17:02:54.296Z,44.98
2018-06-22T17:05:22.662Z,44.63
2018-06-22T17:07:56.590Z,44.46
2018-06-22T17:10:30.434Z,45.66
2018-06-22T17:13:04.355Z,45.22
2018-06-22T17:15:38.317Z,46.32
2018-06-22T17:18:13.115Z,48.00
2018-06-22T17:20:43.083Z,48.43
2018-06-22T17:23:12.997Z,48.67
2018-06-22T17:25:43.632Z,49.10
2018-06-22T17:28:11.926Z,48.97
2018-06-22T17:30:42.411Z,48.83
2018-06-22T17:33:10.665Z,50.36
2018-06-22T17:35:42.172Z,47.65
2018-06-22T17:38:10.385Z,47.51
2018-06-22T17:40:41.288Z,48.94
2018-06-22T17:43:09.736Z,47.86
2018-06-22T17:45:39.594Z,47.41
2018-06-22T17:48:08.125Z,46.75
2018-06-22T17:50:38.255Z,47.05
2018-06-22T17:53:06.731Z,48.05
2018-06-22T17:55:35.130Z,48.28
2018-06-22T17:58:06.584Z,48.73
2018-06-22T18:00:40.493Z,48.90
2018-06-22T18:03:14.299Z,49.56
2018-06-22T18:05:47.882Z,49.11
2018-06-22T18:08:21.745Z,49.40
2018-06-22T18:10:55.461Z,50.15
2018-06-22T18:13:24.109Z,49.78
2018-06-22T18:15:52.464Z,50.48
2018-06-22T18:18:20.846Z,49.86
2018-06-22T18:20:49.533Z,49.49
2018-06-22T18:23:18.125Z,50.52
2018-06-22T18:25:46.580Z,50.02
2018-06-22T18:28:14.997Z,50.33
2018-06-22T18:30:43.521Z,50.40
2018-06-22T18:33:12.147Z,50.99
2018-06-22T18:35:40.618Z,51.23
2018-06-22T18:38:08.907Z,51.55
2018-06-22T18:40:36.856Z,51.43
2018-06-22T18:43:05.042Z,51.72
2018-06-22T18:45:33.066Z,51.29
2018-06-22T18:48:01.120Z,51.87
2018-06-22T18:50:30.250Z,51.88
2018-06-22T18:54:06.970Z,52.40
2018-06-22T18:56:40.758Z,52.64
2018-06-22T18:59:14.581Z,52.90
2018-06-22T19:01:48.517Z,52.83
2018-06-22T19:04:17.097Z,52.87
2018-06-22T19:06:45.444Z,53.67
2018-06-22T19:09:14.264Z,53.69
2018-06-22T19:11:42.758Z,53.47
2018-06-22T19:14:11.305Z,52.96
2018-06-22T19:16:40.451Z,53.11
2018-06-22T19:19:09.445Z,52.31
2018-06-22T19:21:37.945Z,51.99
2018-06-22T19:24:06.573Z,52.62
2018-06-22T19:26:34.841Z,52.25
2018-06-22T19:29:02.832Z,52.59
2018-06-22T19:31:31.296Z,52.57
2018-06-22T19:33:59.278Z,52.89
2018-06-22T19:36:27.252Z,53.71
2018-06-22T19:38:55.252Z,55.28
2018-06-22T19:41:23.682Z,54.99
2018-06-22T19:43:57.449Z,54.50
2018-06-22T19:46:31.442Z,54.57
2018-06-22T19:49:05.273Z,54.56
2018-06-22T19:51:38.937Z,54.72
2018-06-22T19:54:08.187Z,55.22
2018-06-22T19:56:36.596Z,56.08
2018-06-22T19:59:05.785Z,55.70
2018-06-22T20:01:34.392Z,55.32
2018-06-22T20:04:02.988Z,59.82
2018-06-22T20:06:31.533Z,62.07
2018-06-22T20:09:00.086Z,65.03
2018-06-22T20:11:28.762Z,63.86
2018-06-22T20:13:57.626Z,62.78
2018-06-22T20:16:25.948Z,63.12
2018-06-22T20:18:54.454Z,64.46
2018-06-22T20:21:23.065Z,63.72
2018-06-22T20:23:51.582Z,65.27
2018-06-22T20:26:25.130Z,63.71
2018-06-22T20:28:53.791Z,62.83
2018-06-22T20:31:28.794Z,62.61
2018-06-22T20:34:01.453Z,65.61
2018-06-22T20:36:35.465Z,64.08
2018-06-22T20:39:09.396Z,64.55
2018-06-22T20:41:43.317Z,65.72
2018-06-22T20:44:17.279Z,66.32
2018-06-22T20:46:51.155Z,67.05
2018-06-22T20:49:24.763Z,66.46
2018-06-22T20:52:00.408Z,65.45
2018-06-22T20:54:29.682Z,65.05
2018-06-22T20:56:59.250Z,66.87
2018-06-22T20:59:27.685Z,65.93
2018-06-22T21:01:55.970Z,65.72
2018-06-22T21:04:24.965Z,65.67
2018-06-22T21:06:53.499Z,65.01
2018-06-22T21:09:24.079Z,64.54
2018-06-22T21:11:53.181Z,64.86
2018-06-22T21:14:22.987Z,65.19
2018-06-22T21:16:51.374Z,64.83
2018-06-22T21:19:19.845Z,64.71
2018-06-22T21:21:53.542Z,64.88
2018-06-22T21:24:21.802Z,65.20
2018-06-22T21:26:49.978Z,65.54
2018-06-22T21:31:25.242Z,64.74
2018-06-22T21:33:58.966Z,66.09
2018-06-22T21:36:32.655Z,66.65
2018-06-22T21:39:02.625Z,66.77
2018-06-22T21:41:30.576Z,67.21
2018-06-22T21:43:58.609Z,66.29
2018-06-22T21:46:26.609Z,66.45
2018-06-22T21:48:54.933Z,66.83
2018-06-22T21:51:23.402Z,66.85
2018-06-22T21:53:53.002Z,66.55
2018-06-22T21:56:21.742Z,67.09
2018-06-22T21:58:50.121Z,66.92
2018-06-22T22:01:18.618Z,67.34
2018-06-22T22:03:47.071Z,66.82
2018-06-22T22:06:15.549Z,67.39
2018-06-22T22:08:44.797Z,67.00
2018-06-22T22:11:13.270Z,66.23
2018-06-22T22:13:42.100Z,65.73
2018-06-22T22:16:10.519Z,65.94
2018-06-22T22:18:38.805Z,65.98
2018-06-22T22:21:07.426Z,65.46
2018-06-22T22:23:35.853Z,65.07
2018-06-22T22:26:04.246Z,66.02
2018-06-22T22:28:32.726Z,65.95
2018-06-22T22:31:01.099Z,66.61
2018-06-22T22:33:29.682Z,67.16
2018-06-22T22:35:58.154Z,66.56
2018-06-22T22:38:26.440Z,67.27
2018-06-22T22:40:54.922Z,67.90
2018-06-22T22:43:23.210Z,67.42
2018-06-22T22:45:51.490Z,67.44
2018-06-22T22:48:19.858Z,67.63
2018-06-22T22:50:48.550Z,66.90
2018-06-22T22:53:16.905Z,67.16
2018-06-22T22:55:45.309Z,67.21
2018-06-22T22:58:13.864Z,66.94
2018-06-22T23:00:42.347Z,67.58
2018-06-22T23:03:10.802Z,67.98
2018-06-22T23:05:39.022Z,68.13
2018-06-22T23:08:07.415Z,69.01
2018-06-22T23:10:36.469Z,69.33
2018-06-22T23:13:04.875Z,70.33
2018-06-22T23:15:33.254Z,69.77
2018-06-22T23:18:01.745Z,69.28
2018-06-22T23:20:30.330Z,69.00
2018-06-22T23:23:09.793Z,69.61
2018-06-22T23:25:38.352Z,68.81
2018-06-22T23:28:06.626Z,68.67
2018-06-22T23:30:34.590Z,69.35
2018-06-22T23:33:02.586Z,68.51
2018-06-22T23:35:30.497Z,68.40
2018-06-22T23:37:59.564Z,66.77
2018-06-22T23:40:27.477Z,66.23
2018-06-22T23:42:56.654Z,64.02
2018-06-22T23:45:25.068Z,63.14
2018-06-22T23:47:53.580Z,62.53
2018-06-22T23:50:22.163Z,62.45
2018-06-22T23:52:50.775Z,61.82
2018-06-22T23:55:19.328Z,61.88
2018-06-22T23:57:47.683Z,60.92
